sensor_id;sensor_type;location;lat;lon;timestamp;temperature;humidity
13211;DHT22;6670;51.53087800;7.23266500;2023-09-12T00:00:50;23.00;1.00
13211;DHT22;6670;51.53087800;7.23266500;2023-09-12T00:03:21;23.10;1.00
13211;DHT22;6670;51.53087800;7.23266500;2023-09-12T00:05:52;23.10;1.00
13211;DHT22;6670;51.53087800;7.23266500;2023-09-12T00:08:19;23.10;99.90
13211;DHT22;6670;51.53087800;7.23266500;2023-09-12T00:10:47;23.20;93.60
13211;DHT22;6670;51.53087800;7.23266500;2023-09-12T00:13:14;23.10;1.00
13211;DHT22;6670;51.53087800;7.23266500;2023-09-12T00:15:41;23.20;25.20
13211;DHT22;6670;51.53087800;7.23266500;2023-09-12T00:18:09;23.20;1.00
13211;DHT22;6670;51.53087800;7.23266500;2023-09-12T00:20:38;23.10;99.90
13211;DHT22;6670;51.53087800;7.23266500;2023-09-12T00:23:05;23.10;1.00
13211;DHT22;6670;51.53087800;7.23266500;2023-09-12T00:25:33;23.20;1.00
13211;DHT22;6670;51.53087800;7.23266500;2023-09-12T00:28:00;22.90;1.00
13211;DHT22;6670;51.53087800;7.23266500;2023-09-12T00:30:28;22.80;1.00
13211;DHT22;6670;51.53087800;7.23266500;2023-09-12T00:32:55;22.80;99.90
13211;DHT22;6670;51.53087800;7.23266500;2023-09-12T00:35:22;22.90;1.00
13211;DHT22;6670;51.53087800;7.23266500;2023-09-12T00:37:52;22.50;99.90
13211;DHT22;6670;51.53087800;7.23266500;2023-09-12T00:40:20;22.30;1.00
13211;DHT22;6670;51.53087800;7.23266500;2023-09-12T00:42:47;22.30;99.90
13211;DHT22;6670;51.53087800;7.23266500;2023-09-12T00:45:14;22.10;1.00
13211;DHT22;6670;51.53087800;7.23266500;2023-09-12T00:47:42;22.10;99.90
13211;DHT22;6670;51.53087800;7.23266500;2023-09-12T00:50:10;22.00;99.90
13211;DHT22;6670;51.53087800;7.23266500;2023-09-12T00:52:38;22.00;1.00
13211;DHT22;6670;51.53087800;7.23266500;2023-09-12T00:55:08;22.30;1.00
13211;DHT22;6670;51.53087800;7.23266500;2023-09-12T00:57:36;22.20;1.00
13211;DHT22;6670;51.53087800;7.23266500;2023-09-12T01:00:05;22.20;1.00
13211;DHT22;6670;51.53087800;7.23266500;2023-09-12T01:02:37;22.10;1.00
13211;DHT22;6670;51.53087800;7.23266500;2023-09-12T01:05:07;22.00;99.90
13211;DHT22;6670;51.53087800;7.23266500;2023-09-12T01:07:34;22.00;1.00
13211;DHT22;6670;51.53087800;7.23266500;2023-09-12T01:10:03;22.20;99.90
13211;DHT22;6670;51.53087800;7.23266500;2023-09-12T01:12:32;22.40;99.90
13211;DHT22;6670;51.53087800;7.23266500;2023-09-12T01:14:59;22.10;99.90
13211;DHT22;6670;51.53087800;7.23266500;2023-09-12T01:17:27;21.90;99.90
13211;DHT22;6670;51.53087800;7.23266500;2023-09-12T01:19:55;22.10;1.00
13211;DHT22;6670;51.53087800;7.23266500;2023-09-12T01:22:38;22.10;99.90
13211;DHT22;6670;51.53087800;7.23266500;2023-09-12T01:25:29;21.90;65.40
13211;DHT22;6670;51.53087800;7.23266500;2023-09-12T01:28:08;22.00;99.90
13211;DHT22;6670;51.53087800;7.23266500;2023-09-12T01:30:38;22.00;1.00
13211;DHT22;6670;51.53087800;7.23266500;2023-09-12T01:33:06;22.00;1.00
13211;DHT22;6670;51.53087800;7.23266500;2023-09-12T01:35:34;22.10;1.00
13211;DHT22;6670;51.53087800;7.23266500;2023-09-12T01:38:02;22.30;1.00
13211;DHT22;6670;51.53087800;7.23266500;2023-09-12T01:40:35;22.20;48.90
13211;DHT22;6670;51.53087800;7.23266500;2023-09-12T01:43:06;22.20;1.00
13211;DHT22;6670;51.53087800;7.23266500;2023-09-12T01:45:35;22.30;99.90
13211;DHT22;6670;51.53087800;7.23266500;2023-09-12T01:48:04;22.40;99.90
13211;DHT22;6670;51.53087800;7.23266500;2023-09-12T01:50:33;22.40;99.90
13211;DHT22;6670;51.53087800;7.23266500;2023-09-12T01:53:01;22.40;99.90
13211;DHT22;6670;51.53087800;7.23266500;2023-09-12T01:55:29;22.30;99.90
13211;DHT22;6670;51.53087800;7.23266500;2023-09-12T01:57:56;22.30;99.90
13211;DHT22;6670;51.53087800;7.23266500;2023-09-12T02:00:25;22.40;1.00
13211;DHT22;6670;51.53087800;7.23266500;2023-09-12T02:02:54;22.40;1.00
13211;DHT22;6670;51.53087800;7.23266500;2023-09-12T02:05:22;22.30;1.00
13211;DHT22;6670;51.53087800;7.23266500;2023-09-12T02:07:50;22.20;94.70
13211;DHT22;6670;51.53087800;7.23266500;2023-09-12T02:10:18;22.30;99.90
13211;DHT22;6670;51.53087800;7.23266500;2023-09-12T02:12:45;22.40;99.90
13211;DHT22;6670;51.53087800;7.23266500;2023-09-12T02:15:13;22.30;1.00
13211;DHT22;6670;51.53087800;7.23266500;2023-09-12T02:17:42;22.20;99.90
13211;DHT22;6670;51.53087800;7.23266500;2023-09-12T02:20:10;22.20;99.90
13211;DHT22;6670;51.53087800;7.23266500;2023-09-12T02:22:37;22.30;99.90
13211;DHT22;6670;51.53087800;7.23266500;2023-09-12T02:25:06;22.40;99.90
13211;DHT22;6670;51.53087800;7.23266500;2023-09-12T02:27:34;22.60;1.00
13211;DHT22;6670;51.53087800;7.23266500;2023-09-12T02:30:06;22.30;49.60
13211;DHT22;6670;51.53087800;7.23266500;2023-09-12T02:32:33;22.40;1.00
13211;DHT22;6670;51.53087800;7.23266500;2023-09-12T02:35:02;22.30;99.90
13211;DHT22;6670;51.53087800;7.23266500;2023-09-12T02:37:30;22.30;99.90
13211;DHT22;6670;51.53087800;7.23266500;2023-09-12T02:39:57;22.40;1.00
13211;DHT22;6670;51.53087800;7.23266500;2023-09-12T02:42:25;22.20;1.00
13211;DHT22;6670;51.53087800;7.23266500;2023-09-12T02:44:52;22.00;1.00
13211;DHT22;6670;51.53087800;7.23266500;2023-09-12T02:47:20;21.70;22.30
13211;DHT22;6670;51.53087800;7.23266500;2023-09-12T02:49:47;21.80;1.00
13211;DHT22;6670;51.53087800;7.23266500;2023-09-12T02:52:16;21.80;1.00
13211;DHT22;6670;51.53087800;7.23266500;2023-09-12T02:54:44;21.90;1.00
13211;DHT22;6670;51.53087800;7.23266500;2023-09-12T02:57:11;21.90;99.90
13211;DHT22;6670;51.53087800;7.23266500;2023-09-12T02:59:39;21.90;99.90
13211;DHT22;6670;51.53087800;7.23266500;2023-09-12T03:02:06;22.00;99.90
13211;DHT22;6670;51.53087800;7.23266500;2023-09-12T03:04:35;21.80;1.00
13211;DHT22;6670;51.53087800;7.23266500;2023-09-12T03:07:03;21.80;1.00
13211;DHT22;6670;51.53087800;7.23266500;2023-09-12T03:09:32;21.80;1.00
13211;DHT22;6670;51.53087800;7.23266500;2023-09-12T03:12:01;21.90;99.90
13211;DHT22;6670;51.53087800;7.23266500;2023-09-12T03:14:29;21.90;99.90
13211;DHT22;6670;51.53087800;7.23266500;2023-09-12T03:16:56;22.00;99.90
13211;DHT22;6670;51.53087800;7.23266500;2023-09-12T03:19:24;22.10;93.10
13211;DHT22;6670;51.53087800;7.23266500;2023-09-12T03:21:51;22.10;99.90
13211;DHT22;6670;51.53087800;7.23266500;2023-09-12T03:24:19;22.20;1.00
13211;DHT22;6670;51.53087800;7.23266500;2023-09-12T03:26:49;22.20;1.00
13211;DHT22;6670;51.53087800;7.23266500;2023-09-12T03:29:17;22.10;1.00
13211;DHT22;6670;51.53087800;7.23266500;2023-09-12T03:31:44;22.20;1.00
13211;DHT22;6670;51.53087800;7.23266500;2023-09-12T03:34:12;22.20;1.00
13211;DHT22;6670;51.53087800;7.23266500;2023-09-12T03:36:39;22.20;18.90
13211;DHT22;6670;51.53087800;7.23266500;2023-09-12T03:39:06;22.10;99.90
13211;DHT22;6670;51.53087800;7.23266500;2023-09-12T03:41:35;22.20;99.90
13211;DHT22;6670;51.53087800;7.23266500;2023-09-12T03:44:05;22.00;99.90
13211;DHT22;6670;51.53087800;7.23266500;2023-09-12T03:46:32;21.80;1.00
13211;DHT22;6670;51.53087800;7.23266500;2023-09-12T03:49:00;21.30;99.90
13211;DHT22;6670;51.53087800;7.23266500;2023-09-12T03:51:27;21.30;99.90
13211;DHT22;6670;51.53087800;7.23266500;2023-09-12T03:53:55;21.50;99.90
13211;DHT22;6670;51.53087800;7.23266500;2023-09-12T03:56:22;21.70;31.70
13211;DHT22;6670;51.53087800;7.23266500;2023-09-12T03:58:50;21.70;1.00
13211;DHT22;6670;51.53087800;7.23266500;2023-09-12T04:01:19;21.70;1.00
13211;DHT22;6670;51.53087800;7.23266500;2023-09-12T04:03:46;21.80;99.90
13211;DHT22;6670;51.53087800;7.23266500;2023-09-12T04:06:14;21.60;99.90
13211;DHT22;6670;51.53087800;7.23266500;2023-09-12T04:08:41;21.50;99.90
13211;DHT22;6670;51.53087800;7.23266500;2023-09-12T04:11:09;21.30;99.90
13211;DHT22;6670;51.53087800;7.23266500;2023-09-12T04:13:36;21.30;99.90
13211;DHT22;6670;51.53087800;7.23266500;2023-09-12T04:16:04;21.50;99.90
13211;DHT22;6670;51.53087800;7.23266500;2023-09-12T04:18:35;21.50;99.90
13211;DHT22;6670;51.53087800;7.23266500;2023-09-12T04:21:02;21.60;99.90
13211;DHT22;6670;51.53087800;7.23266500;2023-09-12T04:23:30;21.70;99.90
13211;DHT22;6670;51.53087800;7.23266500;2023-09-12T04:25:58;21.70;99.90
13211;DHT22;6670;51.53087800;7.23266500;2023-09-12T04:28:29;21.60;71.80
13211;DHT22;6670;51.53087800;7.23266500;2023-09-12T04:31:03;21.60;83.10
13211;DHT22;6670;51.53087800;7.23266500;2023-09-12T04:33:31;21.50;99.90
13211;DHT22;6670;51.53087800;7.23266500;2023-09-12T04:36:00;21.50;99.90
13211;DHT22;6670;51.53087800;7.23266500;2023-09-12T04:38:29;21.50;99.90
13211;DHT22;6670;51.53087800;7.23266500;2023-09-12T04:40:57;21.40;1.00
13211;DHT22;6670;51.53087800;7.23266500;2023-09-12T04:43:24;21.30;1.00
13211;DHT22;6670;51.53087800;7.23266500;2023-09-12T04:45:51;21.30;1.00
13211;DHT22;6670;51.53087800;7.23266500;2023-09-12T04:48:18;21.40;99.90
13211;DHT22;6670;51.53087800;7.23266500;2023-09-12T04:50:46;21.20;49.70
13211;DHT22;6670;51.53087800;7.23266500;2023-09-12T04:53:16;21.20;49.00
13211;DHT22;6670;51.53087800;7.23266500;2023-09-12T04:55:43;21.10;51.40
13211;DHT22;6670;51.53087800;7.23266500;2023-09-12T04:58:11;21.30;4.30
13211;DHT22;6670;51.53087800;7.23266500;2023-09-12T05:00:39;21.40;99.20
13211;DHT22;6670;51.53087800;7.23266500;2023-09-12T05:03:07;21.40;40.00
13211;DHT22;6670;51.53087800;7.23266500;2023-09-12T05:05:34;21.30;41.70
13211;DHT22;6670;51.53087800;7.23266500;2023-09-12T05:08:03;21.30;31.00
13211;DHT22;6670;51.53087800;7.23266500;2023-09-12T05:10:32;21.40;99.90
13211;DHT22;6670;51.53087800;7.23266500;2023-09-12T05:13:00;21.40;1.00
13211;DHT22;6670;51.53087800;7.23266500;2023-09-12T05:15:27;21.40;1.00
13211;DHT22;6670;51.53087800;7.23266500;2023-09-12T05:17:55;21.40;1.00
13211;DHT22;6670;51.53087800;7.23266500;2023-09-12T05:20:22;21.40;1.00
13211;DHT22;6670;51.53087800;7.23266500;2023-09-12T05:22:50;21.40;1.00
13211;DHT22;6670;51.53087800;7.23266500;2023-09-12T05:25:17;21.40;1.00
13211;DHT22;6670;51.53087800;7.23266500;2023-09-12T05:27:49;21.40;1.00
13211;DHT22;6670;51.53087800;7.23266500;2023-09-12T05:30:17;21.40;11.40
13211;DHT22;6670;51.53087800;7.23266500;2023-09-12T05:32:46;21.40;1.00
13211;DHT22;6670;51.53087800;7.23266500;2023-09-12T05:35:14;21.40;74.60
13211;DHT22;6670;51.53087800;7.23266500;2023-09-12T05:37:42;21.30;17.30
13211;DHT22;6670;51.53087800;7.23266500;2023-09-12T05:40:10;21.20;50.30
13211;DHT22;6670;51.53087800;7.23266500;2023-09-12T05:42:37;21.30;20.40
13211;DHT22;6670;51.53087800;7.23266500;2023-09-12T05:45:07;21.30;1.00
13211;DHT22;6670;51.53087800;7.23266500;2023-09-12T05:47:35;21.40;1.00
13211;DHT22;6670;51.53087800;7.23266500;2023-09-12T05:50:02;21.40;1.00
13211;DHT22;6670;51.53087800;7.23266500;2023-09-12T05:52:33;21.50;99.90
13211;DHT22;6670;51.53087800;7.23266500;2023-09-12T05:55:00;21.50;86.90
13211;DHT22;6670;51.53087800;7.23266500;2023-09-12T05:57:30;21.30;1.00
13211;DHT22;6670;51.53087800;7.23266500;2023-09-12T05:59:59;21.50;1.00
13211;DHT22;6670;51.53087800;7.23266500;2023-09-12T06:02:28;21.60;1.00
13211;DHT22;6670;51.53087800;7.23266500;2023-09-12T06:04:56;21.30;99.90
13211;DHT22;6670;51.53087800;7.23266500;2023-09-12T06:07:24;21.20;99.90
13211;DHT22;6670;51.53087800;7.23266500;2023-09-12T06:09:51;21.20;99.90
13211;DHT22;6670;51.53087800;7.23266500;2023-09-12T06:12:18;21.30;99.90
13211;DHT22;6670;51.53087800;7.23266500;2023-09-12T06:14:46;21.30;99.90
13211;DHT22;6670;51.53087800;7.23266500;2023-09-12T06:17:13;21.30;99.90
13211;DHT22;6670;51.53087800;7.23266500;2023-09-12T06:19:42;21.40;99.90
13211;DHT22;6670;51.53087800;7.23266500;2023-09-12T06:22:09;21.20;99.90
13211;DHT22;6670;51.53087800;7.23266500;2023-09-12T06:24:37;21.20;99.90
13211;DHT22;6670;51.53087800;7.23266500;2023-09-12T06:27:05;21.50;99.90
13211;DHT22;6670;51.53087800;7.23266500;2023-09-12T06:29:32;21.50;99.90
13211;DHT22;6670;51.53087800;7.23266500;2023-09-12T06:31:59;21.50;99.90
13211;DHT22;6670;51.53087800;7.23266500;2023-09-12T06:34:28;21.20;99.90
13211;DHT22;6670;51.53087800;7.23266500;2023-09-12T06:36:57;21.30;99.90
13211;DHT22;6670;51.53087800;7.23266500;2023-09-12T06:39:24;21.50;99.90
13211;DHT22;6670;51.53087800;7.23266500;2023-09-12T06:41:52;21.60;99.90
13211;DHT22;6670;51.53087800;7.23266500;2023-09-12T06:44:19;21.20;99.90
13211;DHT22;6670;51.53087800;7.23266500;2023-09-12T06:46:47;20.90;99.90
13211;DHT22;6670;51.53087800;7.23266500;2023-09-12T06:49:14;20.90;99.90
13211;DHT22;6670;51.53087800;7.23266500;2023-09-12T06:51:42;20.80;99.90
13211;DHT22;6670;51.53087800;7.23266500;2023-09-12T06:54:11;20.80;99.90
13211;DHT22;6670;51.53087800;7.23266500;2023-09-12T06:56:38;20.60;99.90
13211;DHT22;6670;51.53087800;7.23266500;2023-09-12T06:59:08;20.60;99.90
13211;DHT22;6670;51.53087800;7.23266500;2023-09-12T07:01:37;20.70;99.90
13211;DHT22;6670;51.53087800;7.23266500;2023-09-12T07:04:04;20.60;99.90
13211;DHT22;6670;51.53087800;7.23266500;2023-09-12T07:06:32;20.80;99.90
13211;DHT22;6670;51.53087800;7.23266500;2023-09-12T07:08:59;20.90;99.90
13211;DHT22;6670;51.53087800;7.23266500;2023-09-12T07:11:30;20.90;99.90
13211;DHT22;6670;51.53087800;7.23266500;2023-09-12T07:13:58;21.00;99.90
13211;DHT22;6670;51.53087800;7.23266500;2023-09-12T07:16:26;20.90;99.90
13211;DHT22;6670;51.53087800;7.23266500;2023-09-12T07:18:53;21.00;99.90
13211;DHT22;6670;51.53087800;7.23266500;2023-09-12T07:21:21;21.00;99.90
13211;DHT22;6670;51.53087800;7.23266500;2023-09-12T07:23:48;21.00;99.90
13211;DHT22;6670;51.53087800;7.23266500;2023-09-12T07:26:16;21.20;99.90
13211;DHT22;6670;51.53087800;7.23266500;2023-09-12T07:28:45;21.30;99.90
13211;DHT22;6670;51.53087800;7.23266500;2023-09-12T07:31:12;21.60;99.90
13211;DHT22;6670;51.53087800;7.23266500;2023-09-12T07:33:39;21.30;99.90
13211;DHT22;6670;51.53087800;7.23266500;2023-09-12T07:36:07;21.00;99.90
13211;DHT22;6670;51.53087800;7.23266500;2023-09-12T07:38:35;21.40;99.90
13211;DHT22;6670;51.53087800;7.23266500;2023-09-12T07:41:03;21.70;99.90
13211;DHT22;6670;51.53087800;7.23266500;2023-09-12T07:43:30;21.20;99.90
13211;DHT22;6670;51.53087800;7.23266500;2023-09-12T07:45:59;21.00;99.90
13211;DHT22;6670;51.53087800;7.23266500;2023-09-12T07:48:27;20.90;99.90
13211;DHT22;6670;51.53087800;7.23266500;2023-09-12T07:50:54;20.80;99.90
13211;DHT22;6670;51.53087800;7.23266500;2023-09-12T07:53:22;20.70;99.90
13211;DHT22;6670;51.53087800;7.23266500;2023-09-12T07:55:49;21.00;99.90
13211;DHT22;6670;51.53087800;7.23266500;2023-09-12T07:58:17;20.90;99.90
13211;DHT22;6670;51.53087800;7.23266500;2023-09-12T08:00:45;20.80;99.90
13211;DHT22;6670;51.53087800;7.23266500;2023-09-12T08:03:14;20.90;99.90
13211;DHT22;6670;51.53087800;7.23266500;2023-09-12T08:05:42;21.10;99.90
13211;DHT22;6670;51.53087800;7.23266500;2023-09-12T08:08:09;21.20;99.90
13211;DHT22;6670;51.53087800;7.23266500;2023-09-12T08:10:37;21.30;99.90
13211;DHT22;6670;51.53087800;7.23266500;2023-09-12T08:13:04;21.50;99.90
13211;DHT22;6670;51.53087800;7.23266500;2023-09-12T08:15:32;21.60;99.90
13211;DHT22;6670;51.53087800;7.23266500;2023-09-12T08:17:59;21.50;99.90
13211;DHT22;6670;51.53087800;7.23266500;2023-09-12T08:20:28;21.50;99.90
13211;DHT22;6670;51.53087800;7.23266500;2023-09-12T08:22:55;21.80;99.90
13211;DHT22;6670;51.53087800;7.23266500;2023-09-12T08:25:23;21.90;99.90
13211;DHT22;6670;51.53087800;7.23266500;2023-09-12T08:27:50;21.80;99.90
13211;DHT22;6670;51.53087800;7.23266500;2023-09-12T08:30:18;21.70;99.90
13211;DHT22;6670;51.53087800;7.23266500;2023-09-12T08:32:45;21.90;99.90
13211;DHT22;6670;51.53087800;7.23266500;2023-09-12T08:35:17;21.80;99.90
13211;DHT22;6670;51.53087800;7.23266500;2023-09-12T08:37:46;21.80;99.90
13211;DHT22;6670;51.53087800;7.23266500;2023-09-12T08:40:14;22.00;99.90
13211;DHT22;6670;51.53087800;7.23266500;2023-09-12T08:42:43;21.80;99.90
13211;DHT22;6670;51.53087800;7.23266500;2023-09-12T08:45:13;22.00;99.90
13211;DHT22;6670;51.53087800;7.23266500;2023-09-12T08:47:42;21.70;99.90
13211;DHT22;6670;51.53087800;7.23266500;2023-09-12T08:50:11;21.50;99.90
13211;DHT22;6670;51.53087800;7.23266500;2023-09-12T08:52:40;21.70;99.90
13211;DHT22;6670;51.53087800;7.23266500;2023-09-12T08:55:10;21.90;99.90
13211;DHT22;6670;51.53087800;7.23266500;2023-09-12T08:57:39;22.00;99.90
13211;DHT22;6670;51.53087800;7.23266500;2023-09-12T09:00:08;22.10;99.90
13211;DHT22;6670;51.53087800;7.23266500;2023-09-12T09:02:39;22.00;99.90
13211;DHT22;6670;51.53087800;7.23266500;2023-09-12T09:05:10;22.50;99.90
13211;DHT22;6670;51.53087800;7.23266500;2023-09-12T09:07:38;22.60;99.90
13211;DHT22;6670;51.53087800;7.23266500;2023-09-12T09:10:13;22.80;99.90
13211;DHT22;6670;51.53087800;7.23266500;2023-09-12T09:12:42;23.10;99.90
13211;DHT22;6670;51.53087800;7.23266500;2023-09-12T09:15:23;23.10;99.90
13211;DHT22;6670;51.53087800;7.23266500;2023-09-12T09:17:52;23.00;99.90
13211;DHT22;6670;51.53087800;7.23266500;2023-09-12T09:20:26;23.10;99.90
13211;DHT22;6670;51.53087800;7.23266500;2023-09-12T09:23:01;23.00;99.90
13211;DHT22;6670;51.53087800;7.23266500;2023-09-12T09:25:33;23.00;99.90
13211;DHT22;6670;51.53087800;7.23266500;2023-09-12T09:28:06;23.10;99.90
13211;DHT22;6670;51.53087800;7.23266500;2023-09-12T09:30:44;23.20;99.90
13211;DHT22;6670;51.53087800;7.23266500;2023-09-12T09:33:12;23.40;99.90
13211;DHT22;6670;51.53087800;7.23266500;2023-09-12T09:35:41;23.20;99.90
13211;DHT22;6670;51.53087800;7.23266500;2023-09-12T09:38:12;23.60;99.90
13211;DHT22;6670;51.53087800;7.23266500;2023-09-12T09:40:44;23.60;99.90
13211;DHT22;6670;51.53087800;7.23266500;2023-09-12T09:43:12;23.50;1.00
13211;DHT22;6670;51.53087800;7.23266500;2023-09-12T09:45:46;23.80;1.00
13211;DHT22;6670;51.53087800;7.23266500;2023-09-12T09:48:20;23.60;99.90
13211;DHT22;6670;51.53087800;7.23266500;2023-09-12T09:50:53;23.50;99.90
13211;DHT22;6670;51.53087800;7.23266500;2023-09-12T10:00:22;23.50;1.00
13211;DHT22;6670;51.53087800;7.23266500;2023-09-12T10:02:51;23.20;1.00
13211;DHT22;6670;51.53087800;7.23266500;2023-09-12T10:05:20;23.30;1.00
13211;DHT22;6670;51.53087800;7.23266500;2023-09-12T10:07:49;23.70;99.90
13211;DHT22;6670;51.53087800;7.23266500;2023-09-12T10:10:18;23.90;99.90
13211;DHT22;6670;51.53087800;7.23266500;2023-09-12T10:12:49;23.90;99.90
13211;DHT22;6670;51.53087800;7.23266500;2023-09-12T10:15:22;23.50;99.90
13211;DHT22;6670;51.53087800;7.23266500;2023-09-12T10:17:55;23.40;83.00
13211;DHT22;6670;51.53087800;7.23266500;2023-09-12T10:20:27;23.50;99.90
13211;DHT22;6670;51.53087800;7.23266500;2023-09-12T10:23:03;23.80;1.00
13211;DHT22;6670;51.53087800;7.23266500;2023-09-12T10:25:36;23.70;1.00
13211;DHT22;6670;51.53087800;7.23266500;2023-09-12T10:28:04;23.60;1.00
13211;DHT22;6670;51.53087800;7.23266500;2023-09-12T10:30:34;23.90;99.90
13211;DHT22;6670;51.53087800;7.23266500;2023-09-12T10:33:02;24.20;1.00
13211;DHT22;6670;51.53087800;7.23266500;2023-09-12T10:35:31;24.10;1.00
13211;DHT22;6670;51.53087800;7.23266500;2023-09-12T10:38:00;24.50;90.00
13211;DHT22;6670;51.53087800;7.23266500;2023-09-12T10:40:31;24.10;1.00
13211;DHT22;6670;51.53087800;7.23266500;2023-09-12T10:43:00;24.10;1.00
13211;DHT22;6670;51.53087800;7.23266500;2023-09-12T10:45:30;24.10;1.00
13211;DHT22;6670;51.53087800;7.23266500;2023-09-12T10:47:59;24.40;1.00
13211;DHT22;6670;51.53087800;7.23266500;2023-09-12T10:50:27;24.60;99.90
13211;DHT22;6670;51.53087800;7.23266500;2023-09-12T10:52:57;24.50;99.90
13211;DHT22;6670;51.53087800;7.23266500;2023-09-12T10:55:34;24.60;62.00
13211;DHT22;6670;51.53087800;7.23266500;2023-09-12T10:58:03;24.70;1.00
13211;DHT22;6670;51.53087800;7.23266500;2023-09-12T11:00:31;24.80;99.90
13211;DHT22;6670;51.53087800;7.23266500;2023-09-12T11:03:35;25.10;1.00
13211;DHT22;6670;51.53087800;7.23266500;2023-09-12T11:06:03;25.10;1.00
13211;DHT22;6670;51.53087800;7.23266500;2023-09-12T11:08:35;25.40;1.00
13211;DHT22;6670;51.53087800;7.23266500;2023-09-12T11:11:20;25.50;99.90
13211;DHT22;6670;51.53087800;7.23266500;2023-09-12T11:14:02;25.50;15.80
13211;DHT22;6670;51.53087800;7.23266500;2023-09-12T11:16:30;25.70;1.00
13211;DHT22;6670;51.53087800;7.23266500;2023-09-12T11:19:18;25.80;99.90
13211;DHT22;6670;51.53087800;7.23266500;2023-09-12T11:21:46;26.20;99.90
13211;DHT22;6670;51.53087800;7.23266500;2023-09-12T11:24:15;26.20;1.00
13211;DHT22;6670;51.53087800;7.23266500;2023-09-12T11:26:53;26.20;1.00
13211;DHT22;6670;51.53087800;7.23266500;2023-09-12T11:29:21;26.00;99.90
13211;DHT22;6670;51.53087800;7.23266500;2023-09-12T11:31:54;26.00;1.00
13211;DHT22;6670;51.53087800;7.23266500;2023-09-12T11:34:26;26.10;45.00
13211;DHT22;6670;51.53087800;7.23266500;2023-09-12T11:36:58;26.30;1.00
13211;DHT22;6670;51.53087800;7.23266500;2023-09-12T11:39:29;26.30;1.00
13211;DHT22;6670;51.53087800;7.23266500;2023-09-12T11:41:57;26.30;1.00
13211;DHT22;6670;51.53087800;7.23266500;2023-09-12T11:44:43;26.40;1.00
13211;DHT22;6670;51.53087800;7.23266500;2023-09-12T11:47:11;26.00;1.00
13211;DHT22;6670;51.53087800;7.23266500;2023-09-12T11:49:41;26.20;1.00
13211;DHT22;6670;51.53087800;7.23266500;2023-09-12T11:52:10;26.30;1.00
13211;DHT22;6670;51.53087800;7.23266500;2023-09-12T11:54:39;26.40;1.00
13211;DHT22;6670;51.53087800;7.23266500;2023-09-12T11:57:08;26.20;99.90
13211;DHT22;6670;51.53087800;7.23266500;2023-09-12T11:59:39;26.30;99.90
13211;DHT22;6670;51.53087800;7.23266500;2023-09-12T12:02:07;26.30;1.00
13211;DHT22;6670;51.53087800;7.23266500;2023-09-12T12:04:35;26.40;99.90
13211;DHT22;6670;51.53087800;7.23266500;2023-09-12T12:07:04;26.60;99.90
13211;DHT22;6670;51.53087800;7.23266500;2023-09-12T12:09:33;27.00;99.90
13211;DHT22;6670;51.53087800;7.23266500;2023-09-12T12:12:11;27.00;5.30
13211;DHT22;6670;51.53087800;7.23266500;2023-09-12T12:14:39;26.60;99.90
13211;DHT22;6670;51.53087800;7.23266500;2023-09-12T12:17:07;26.30;99.90
13211;DHT22;6670;51.53087800;7.23266500;2023-09-12T12:19:36;26.80;99.90
13211;DHT22;6670;51.53087800;7.23266500;2023-09-12T12:22:06;27.00;99.90
13211;DHT22;6670;51.53087800;7.23266500;2023-09-12T12:25:05;27.50;99.90
13211;DHT22;6670;51.53087800;7.23266500;2023-09-12T12:27:33;27.30;99.90
13211;DHT22;6670;51.53087800;7.23266500;2023-09-12T12:30:07;27.10;57.40
13211;DHT22;6670;51.53087800;7.23266500;2023-09-12T12:32:39;27.40;99.90
13211;DHT22;6670;51.53087800;7.23266500;2023-09-12T12:35:07;27.80;1.00
13211;DHT22;6670;51.53087800;7.23266500;2023-09-12T12:37:37;27.90;99.90
13211;DHT22;6670;51.53087800;7.23266500;2023-09-12T12:40:05;28.20;1.00
13211;DHT22;6670;51.53087800;7.23266500;2023-09-12T12:42:39;28.00;1.00
13211;DHT22;6670;51.53087800;7.23266500;2023-09-12T12:45:11;28.50;50.20
13211;DHT22;6670;51.53087800;7.23266500;2023-09-12T12:47:58;27.90;1.00
13211;DHT22;6670;51.53087800;7.23266500;2023-09-12T12:50:26;28.00;1.00
13211;DHT22;6670;51.53087800;7.23266500;2023-09-12T12:52:54;28.30;1.00
13211;DHT22;6670;51.53087800;7.23266500;2023-09-12T12:55:25;28.10;99.90
13211;DHT22;6670;51.53087800;7.23266500;2023-09-12T12:57:53;28.10;99.90
13211;DHT22;6670;51.53087800;7.23266500;2023-09-12T13:00:20;28.00;99.90
13211;DHT22;6670;51.53087800;7.23266500;2023-09-12T13:02:49;28.70;99.90
13211;DHT22;6670;51.53087800;7.23266500;2023-09-12T13:05:21;28.60;99.90
13211;DHT22;6670;51.53087800;7.23266500;2023-09-12T13:07:52;29.00;99.90
13211;DHT22;6670;51.53087800;7.23266500;2023-09-12T13:10:32;29.40;99.90
13211;DHT22;6670;51.53087800;7.23266500;2023-09-12T13:12:59;29.60;99.90
13211;DHT22;6670;51.53087800;7.23266500;2023-09-12T13:15:26;29.70;99.50
13211;DHT22;6670;51.53087800;7.23266500;2023-09-12T13:17:54;29.70;99.90
13211;DHT22;6670;51.53087800;7.23266500;2023-09-12T13:20:21;30.10;56.80
13211;DHT22;6670;51.53087800;7.23266500;2023-09-12T13:22:48;29.60;49.50
13211;DHT22;6670;51.53087800;7.23266500;2023-09-12T13:25:16;30.40;99.90
13211;DHT22;6670;51.53087800;7.23266500;2023-09-12T13:27:45;30.80;90.40
13211;DHT22;6670;51.53087800;7.23266500;2023-09-12T13:30:13;30.80;99.90
13211;DHT22;6670;51.53087800;7.23266500;2023-09-12T13:32:40;31.00;99.90
13211;DHT22;6670;51.53087800;7.23266500;2023-09-12T13:35:08;30.30;1.00
13211;DHT22;6670;51.53087800;7.23266500;2023-09-12T13:37:35;29.70;99.90
13211;DHT22;6670;51.53087800;7.23266500;2023-09-12T13:40:03;29.70;99.90
13211;DHT22;6670;51.53087800;7.23266500;2023-09-12T13:42:32;29.40;99.90
13211;DHT22;6670;51.53087800;7.23266500;2023-09-12T13:45:01;29.90;99.90
13211;DHT22;6670;51.53087800;7.23266500;2023-09-12T13:47:29;29.00;99.90
13211;DHT22;6670;51.53087800;7.23266500;2023-09-12T13:49:56;29.60;1.00
13211;DHT22;6670;51.53087800;7.23266500;2023-09-12T13:52:26;29.60;99.90
13211;DHT22;6670;51.53087800;7.23266500;2023-09-12T13:54:53;29.40;99.90